createdAt,value
2023-02-15T00:04:59.759Z,102371.47
2023-02-15T00:10:01.518Z,102364.94
2023-02-15T00:15:05.092Z,102355.44
2023-02-15T00:20:07.828Z,102357.38
2023-02-15T00:25:09.600Z,102347.88
2023-02-15T00:30:13.794Z,102339.03
2023-02-15T00:35:15.687Z,102345.22
2023-02-15T00:40:17.634Z,102336.69
2023-02-15T00:45:22.198Z,102334.19
2023-02-15T00:50:24.010Z,102326.19
2023-02-15T00:55:25.756Z,102322.19
2023-02-15T01:00:28.806Z,102313.78
2023-02-15T01:05:33.288Z,102311.97
2023-02-15T01:10:35.314Z,102305.16
2023-02-15T01:15:38.421Z,102306.63
2023-02-15T01:20:42.003Z,102300.38
2023-02-15T01:25:43.730Z,102292.78
2023-02-15T01:30:47.597Z,102297.91
2023-02-15T01:35:57.185Z,102287.06
2023-02-15T01:41:18.908Z,102285.34
2023-02-15T01:46:24.479Z,102293.25
2023-02-15T01:51:27.535Z,102286.22
2023-02-15T01:56:34.394Z,102280.88
2023-02-15T02:01:37.631Z,102265.00
2023-02-15T02:06:39.378Z,102262.75
2023-02-15T02:11:41.751Z,102258.44
2023-02-15T02:16:48.260Z,102257.22
2023-02-15T02:22:03.355Z,102250.91
2023-02-15T02:27:30.007Z,102244.88
2023-02-15T02:38:11.140Z,102239.94
2023-02-15T02:43:17.170Z,102237.66
2023-02-15T02:48:21.765Z,102226.84
2023-02-15T02:53:24.554Z,102228.34
2023-02-15T02:58:27.787Z,102212.72
2023-02-15T03:03:32.929Z,102204.94
2023-02-15T03:08:36.769Z,102201.56
2023-02-15T03:13:38.629Z,102195.72
2023-02-15T03:18:45.334Z,102198.81
2023-02-15T03:23:47.116Z,102197.03
2023-02-15T03:28:49.055Z,102186.09
2023-02-15T03:33:54.460Z,102189.00
2023-02-15T03:39:00.691Z,102188.31
2023-02-15T03:44:05.561Z,102189.50
2023-02-15T03:49:09.593Z,102174.25
2023-02-15T03:54:13.499Z,102181.88
2023-02-15T03:59:33.815Z,102175.03
2023-02-15T04:04:37.998Z,102170.50
2023-02-15T04:09:58.381Z,102172.78
2023-02-15T04:15:18.616Z,102168.91
2023-02-15T04:20:40.336Z,102174.47
2023-02-15T04:25:42.019Z,102168.69
2023-02-15T04:30:43.746Z,102179.41
2023-02-15T04:35:46.771Z,102173.84
2023-02-15T04:40:50.595Z,102159.41
2023-02-15T04:45:52.471Z,102157.38
2023-02-15T04:50:55.560Z,102145.38
2023-02-15T04:55:57.245Z,102134.75
2023-02-15T05:00:59.059Z,102141.03
2023-02-15T05:06:02.427Z,102134.47
2023-02-15T05:11:04.364Z,102133.53
2023-02-15T05:16:06.062Z,102129.59
2023-02-15T05:21:09.145Z,102121.03
2023-02-15T05:26:29.838Z,102121.13
2023-02-15T05:31:31.832Z,102121.53
2023-02-15T05:36:35.092Z,102116.19
2023-02-15T05:41:36.842Z,102119.22
2023-02-15T05:46:38.621Z,102121.09
2023-02-15T05:51:41.662Z,102117.22
2023-02-15T05:56:43.403Z,102123.88
2023-02-15T06:01:45.189Z,102126.97
2023-02-15T06:06:48.309Z,102124.78
2023-02-15T06:11:50.063Z,102129.78
2023-02-15T06:16:51.857Z,102117.97
2023-02-15T06:21:54.956Z,102122.16
2023-02-15T06:26:56.698Z,102118.44
2023-02-15T06:31:58.499Z,102120.09
2023-02-15T06:37:01.558Z,102108.59
2023-02-15T06:42:03.567Z,102109.47
2023-02-15T06:47:05.435Z,102102.00
2023-02-15T06:52:08.641Z,102104.16
2023-02-15T06:57:10.585Z,102097.03
2023-02-15T07:02:12.445Z,102098.25
2023-02-15T07:07:15.460Z,102102.34
2023-02-15T07:12:35.667Z,102089.22
2023-02-15T07:17:37.518Z,102088.31
2023-02-15T07:22:40.623Z,102081.09
2023-02-15T07:27:42.402Z,102080.28
2023-02-15T07:33:05.123Z,102086.50
2023-02-15T07:38:08.648Z,102092.53
2023-02-15T07:43:10.349Z,102100.44
2023-02-15T07:48:12.012Z,102092.94
2023-02-15T07:53:15.133Z,102080.81
2023-02-15T07:58:16.850Z,102081.63
2023-02-15T08:03:18.679Z,102078.00
2023-02-15T08:08:31.111Z,102079.50
2023-02-15T08:13:32.896Z,102077.91
2023-02-15T08:18:35.281Z,102061.44
2023-02-15T08:23:38.439Z,102051.81
2023-02-15T08:28:40.298Z,102032.88
2023-02-15T08:33:42.874Z,102039.13
2023-02-15T08:38:45.885Z,102035.47
2023-02-15T08:43:48.307Z,102035.16
2023-02-15T08:48:50.114Z,102025.09
2023-02-15T08:53:53.880Z,102025.19
2023-02-15T08:58:55.617Z,102012.16
2023-02-15T09:03:58.048Z,102003.34
2023-02-15T09:09:01.049Z,101995.78
2023-02-15T09:14:04.287Z,101989.44
2023-02-15T09:19:06.099Z,101990.06
2023-02-15T09:24:10.989Z,101982.06
2023-02-15T09:29:12.942Z,102001.94
2023-02-15T09:34:16.906Z,101992.19
2023-02-15T09:39:20.969Z,101990.25
2023-02-15T09:44:27.347Z,101977.84
2023-02-15T09:49:32.545Z,101978.28
2023-02-15T09:54:42.873Z,101978.25
2023-02-15T09:59:47.254Z,101981.19
2023-02-15T10:04:55.697Z,101973.03
2023-02-15T10:10:07.626Z,101978.63
2023-02-15T10:15:21.205Z,101971.19
2023-02-15T10:20:27.082Z,101969.41
2023-02-15T10:25:35.248Z,101971.47
2023-02-15T10:30:42.264Z,101960.56
2023-02-15T10:35:46.706Z,101963.72
2023-02-15T10:40:57.360Z,101947.69
2023-02-15T10:46:02.929Z,101946.38
2023-02-15T10:51:05.656Z,101940.72
2023-02-15T10:56:13.230Z,101944.81
2023-02-15T11:01:20.751Z,101933.38
2023-02-15T11:06:22.669Z,101929.41
2023-02-15T11:11:27.616Z,101927.34
2023-02-15T11:16:31.037Z,101928.88
2023-02-15T11:21:33.996Z,101938.19
2023-02-15T11:26:39.182Z,101937.28
2023-02-15T11:31:44.396Z,101943.84
2023-02-15T11:36:46.209Z,101934.38
2023-02-15T11:41:53.019Z,101924.72
2023-02-15T11:46:54.745Z,101915.78
2023-02-15T11:51:56.437Z,101916.50
2023-02-15T11:57:00.541Z,101910.50
2023-02-15T12:02:02.242Z,101902.56
2023-02-15T12:07:05.744Z,101903.38
2023-02-15T12:12:25.353Z,101896.50
2023-02-15T12:17:27.828Z,101883.25
2023-02-15T12:22:30.579Z,101889.44
2023-02-15T12:27:34.190Z,101881.53
2023-02-15T12:32:36.683Z,101885.00
2023-02-15T12:37:38.394Z,101887.72
2023-02-15T12:42:45.670Z,101873.63
2023-02-15T12:47:48.624Z,101861.31
2023-02-15T12:52:51.377Z,101863.09
2023-02-15T12:58:16.990Z,101856.97
2023-02-15T13:03:19.788Z,101837.69
2023-02-15T13:08:22.438Z,101834.16
2023-02-15T13:13:27.214Z,101840.31
2023-02-15T13:18:31.457Z,101824.50
2023-02-15T13:23:34.779Z,101821.88
2023-02-15T13:28:41.858Z,101815.75
2023-02-15T13:33:46.356Z,101815.75
2023-02-15T13:38:52.763Z,101815.75
2023-02-15T13:44:00.139Z,101809.63
2023-02-15T13:49:10.641Z,101804.31
2023-02-15T13:54:33.229Z,101812.22
2023-02-15T13:59:45.771Z,101809.56
2023-02-15T14:04:56.876Z,101791.13
2023-02-15T14:10:03.959Z,101796.38
2023-02-15T14:15:22.844Z,101786.63
2023-02-15T14:20:26.888Z,101793.63
2023-02-15T14:25:30.373Z,101795.28
2023-02-15T14:30:35.139Z,101792.59
2023-02-15T14:35:38.100Z,101788.97
2023-02-15T14:41:02.266Z,101793.41
2023-02-15T14:46:09.419Z,101795.84
2023-02-15T14:51:11.200Z,101801.81
2023-02-15T14:56:30.983Z,101787.50
2023-02-15T15:01:34.488Z,101792.53
2023-02-15T15:06:37.726Z,101779.28
2023-02-15T15:11:44.198Z,101786.84
2023-02-15T15:16:51.746Z,101787.50
2023-02-15T15:21:56.991Z,101790.53
2023-02-15T15:27:31.981Z,101776.38
2023-02-15T15:32:34.997Z,101783.00
2023-02-15T15:37:47.774Z,101779.47
2023-02-15T15:42:52.322Z,101781.06
2023-02-15T15:48:07.098Z,101789.59
2023-02-15T15:53:13.297Z,101785.78
2023-02-15T15:58:16.575Z,101783.03
2023-02-15T16:03:23.809Z,101770.78
2023-02-15T16:08:30.012Z,101770.63
2023-02-15T16:13:31.710Z,101772.31
2023-02-15T16:18:37.103Z,101769.38
2023-02-15T16:24:00.648Z,101776.03
2023-02-15T16:29:02.454Z,101775.69
2023-02-15T16:34:10.477Z,101760.16
2023-02-15T16:39:18.818Z,101759.97
2023-02-15T16:44:20.668Z,101765.63
2023-02-15T16:49:24.213Z,101764.69
2023-02-15T16:54:26.285Z,101771.69
2023-02-15T16:59:32.339Z,101778.22
2023-02-15T17:04:38.866Z,101772.75
2023-02-15T17:09:43.118Z,101764.41
2023-02-15T17:14:45.055Z,101765.94
2023-02-15T17:19:50.347Z,101773.50
2023-02-15T17:24:58.821Z,101768.16
2023-02-15T17:30:01.701Z,101772.19
2023-02-15T17:35:15.896Z,101760.09
2023-02-15T17:40:23.037Z,101754.69
2023-02-15T17:45:26.666Z,101762.25
2023-02-15T17:50:29.865Z,101763.47
2023-02-15T17:55:41.276Z,101763.38
2023-02-15T18:01:02.960Z,101767.72
2023-02-15T18:06:25.597Z,101771.13
2023-02-15T18:11:39.568Z,101756.88
2023-02-15T18:16:44.486Z,101750.31
2023-02-15T18:21:47.598Z,101742.59
2023-02-15T18:26:49.531Z,101741.53
2023-02-15T18:31:52.971Z,101739.72
2023-02-15T18:36:56.350Z,101737.97
2023-02-15T18:41:58.019Z,101729.56
2023-02-15T18:46:59.724Z,101726.06
2023-02-15T18:52:02.953Z,101714.94
2023-02-15T18:57:04.642Z,101720.03
2023-02-15T19:02:11.701Z,101711.56
2023-02-15T19:07:16.841Z,101716.88
2023-02-15T19:12:19.652Z,101722.41
2023-02-15T19:17:21.662Z,101719.47
2023-02-15T19:22:26.317Z,101712.97
2023-02-15T19:27:31.733Z,101710.28
2023-02-15T19:32:33.606Z,101705.78
2023-02-15T19:37:38.144Z,101710.19
2023-02-15T19:42:39.844Z,101710.69
2023-02-15T19:47:43.238Z,101705.63
2023-02-15T19:52:46.455Z,101704.47
2023-02-15T19:57:48.830Z,101702.00
2023-02-15T20:02:50.594Z,101692.63
2023-02-15T20:07:53.592Z,101679.44
2023-02-15T20:12:55.464Z,101677.38
2023-02-15T20:17:57.982Z,101686.06
2023-02-15T20:23:01.064Z,101689.75
2023-02-15T20:28:02.851Z,101693.66
2023-02-15T20:33:04.617Z,101695.41
2023-02-15T20:38:07.915Z,101688.03
2023-02-15T20:43:10.798Z,101689.38
2023-02-15T20:48:12.625Z,101688.53
2023-02-15T20:53:15.756Z,101683.50
2023-02-15T20:58:20.735Z,101689.31
2023-02-15T21:03:26.375Z,101688.41
2023-02-15T21:08:29.467Z,101690.09
2023-02-15T21:13:32.163Z,101707.63
2023-02-15T21:18:34.202Z,101694.50
2023-02-15T21:23:38.131Z,101689.38
2023-02-15T21:28:41.299Z,101702.78
2023-02-15T21:33:44.311Z,101697.28
2023-02-15T21:38:47.514Z,101695.34
2023-02-15T21:44:07.746Z,101691.25
2023-02-15T21:49:10.728Z,101696.28
2023-02-15T21:54:14.713Z,101690.81
2023-02-15T21:59:18.167Z,101686.53
2023-02-15T22:04:21.531Z,101681.97
2023-02-15T22:09:26.572Z,101679.28
2023-02-15T22:14:35.333Z,101686.09
2023-02-15T22:19:37.020Z,101691.28
2023-02-15T22:24:40.265Z,101692.66
2023-02-15T22:29:41.976Z,101681.03
2023-02-15T22:34:43.717Z,101684.53
2023-02-15T22:39:46.824Z,101685.78
2023-02-15T22:44:48.585Z,101685.78
2023-02-15T22:49:50.321Z,101678.09
2023-02-15T22:54:53.346Z,101684.06
2023-02-15T22:59:55.021Z,101699.47
2023-02-15T23:04:56.725Z,101694.69
2023-02-15T23:09:59.779Z,101679.22
2023-02-15T23:15:01.504Z,101674.91
2023-02-15T23:20:03.541Z,101668.22
2023-02-15T23:25:08.721Z,101669.06
2023-02-15T23:30:13.071Z,101666.59
2023-02-15T23:35:15.300Z,101677.50
2023-02-15T23:40:38.029Z,101674.78
2023-02-15T23:45:39.812Z,101667.16
2023-02-15T23:50:41.522Z,101673.59
2023-02-15T23:55:44.529Z,101679.03
